createdAt,value
2019-03-24T00:01:18.322Z,13.62
2019-03-24T00:03:49.058Z,13.03
2019-03-24T00:06:19.724Z,12.50
2019-03-24T00:08:50.564Z,12.73
2019-03-24T00:11:21.439Z,11.60
2019-03-24T00:13:52.092Z,12.45
2019-03-24T00:16:22.740Z,11.53
2019-03-24T00:18:53.581Z,11.88
2019-03-24T00:21:24.230Z,11.38
2019-03-24T00:23:55.003Z,11.12
2019-03-24T00:26:25.654Z,11.90
2019-03-24T00:28:56.510Z,12.05
2019-03-24T00:31:27.369Z,11.93
2019-03-24T00:33:58.121Z,10.28
2019-03-24T00:36:29.530Z,10.43
2019-03-24T00:39:00.447Z,10.03
2019-03-24T00:41:31.182Z,8.90
2019-03-24T00:44:02.057Z,9.95
2019-03-24T00:46:32.812Z,10.32
2019-03-24T00:49:03.446Z,10.78
2019-03-24T00:51:34.196Z,9.60
2019-03-24T00:54:05.071Z,9.68
2019-03-24T00:56:35.709Z,10.30
2019-03-24T01:01:36.191Z,10.43
2019-03-24T01:04:06.961Z,10.03
2019-03-24T01:06:37.817Z,11.75
2019-03-24T01:09:08.984Z,9.18
2019-03-24T01:11:39.427Z,9.98
2019-03-24T01:14:09.964Z,10.20
2019-03-24T01:16:40.818Z,10.10
2019-03-24T01:19:11.587Z,11.18
2019-03-24T01:21:42.321Z,10.82
2019-03-24T01:24:12.993Z,10.58
2019-03-24T01:26:43.832Z,9.33
2019-03-24T01:29:14.607Z,10.25
2019-03-24T01:31:45.356Z,10.03
2019-03-24T01:34:18.871Z,9.65
2019-03-24T01:36:51.464Z,9.88
2019-03-24T01:39:22.325Z,10.03
2019-03-24T01:41:52.976Z,9.85
2019-03-24T01:44:23.829Z,9.83
2019-03-24T01:46:54.566Z,10.35
2019-03-24T01:49:25.338Z,10.30
2019-03-24T01:51:55.989Z,9.93
2019-03-24T01:54:26.843Z,9.75
2019-03-24T01:56:57.600Z,10.78
2019-03-24T01:59:28.234Z,9.75
2019-03-24T02:04:28.732Z,10.13
2019-03-24T02:09:29.322Z,10.72
2019-03-24T02:12:00.079Z,10.30
2019-03-24T02:14:30.716Z,10.88
2019-03-24T02:17:01.465Z,10.68
2019-03-24T02:19:32.236Z,9.88
2019-03-24T02:22:02.972Z,9.90
2019-03-24T02:24:33.825Z,9.60
2019-03-24T02:27:04.702Z,10.18
2019-03-24T02:29:35.458Z,10.13
2019-03-24T02:32:06.110Z,10.90
2019-03-24T02:34:36.967Z,10.82
2019-03-24T02:37:16.413Z,9.98
2019-03-24T02:39:46.943Z,10.60
2019-03-24T02:44:47.350Z,8.63
2019-03-24T02:47:18.205Z,9.08
2019-03-24T02:49:48.953Z,9.30
2019-03-24T02:52:19.611Z,8.95
2019-03-24T02:54:50.342Z,8.65
2019-03-24T02:57:21.113Z,8.78
2019-03-24T02:59:51.866Z,9.03
2019-03-24T03:02:22.521Z,9.88
2019-03-24T03:04:53.376Z,11.15
2019-03-24T03:07:24.133Z,10.93
2019-03-24T03:09:54.765Z,11.48
2019-03-24T03:14:54.957Z,9.10
2019-03-24T03:17:25.709Z,9.93
2019-03-24T03:19:56.346Z,9.00
2019-03-24T03:22:27.104Z,10.60
2019-03-24T03:24:57.955Z,10.13
2019-03-24T03:27:28.606Z,10.25
2019-03-24T03:32:29.108Z,9.80
2019-03-24T03:34:59.743Z,9.33
2019-03-24T03:40:00.852Z,9.00
2019-03-24T03:42:31.420Z,9.13
2019-03-24T03:45:02.272Z,9.48
2019-03-24T03:47:32.899Z,9.50
2019-03-24T03:52:33.398Z,9.33
2019-03-24T03:55:04.984Z,8.30
2019-03-24T03:57:35.533Z,9.30
2019-03-24T04:00:07.798Z,8.98
2019-03-24T04:02:38.456Z,8.28
2019-03-24T04:05:09.316Z,8.68
2019-03-24T04:07:40.175Z,8.58
2019-03-24T04:10:10.927Z,8.73
2019-03-24T04:12:41.579Z,8.25
2019-03-24T04:15:12.437Z,7.60
2019-03-24T04:17:43.190Z,8.98
2019-03-24T04:20:13.939Z,8.53
2019-03-24T04:22:44.813Z,8.48
2019-03-24T04:25:15.536Z,9.08
2019-03-24T04:27:46.310Z,8.38
2019-03-24T04:30:16.960Z,9.80
2019-03-24T04:32:47.813Z,8.08
2019-03-24T04:35:18.567Z,8.95
2019-03-24T04:37:49.324Z,9.30
2019-03-24T04:40:20.075Z,9.25
2019-03-24T04:42:50.932Z,8.18
2019-03-24T04:45:21.687Z,10.15
2019-03-24T04:47:52.323Z,9.38
2019-03-24T04:50:23.192Z,8.40
2019-03-24T04:52:53.930Z,9.03
2019-03-24T04:55:24.685Z,10.03
2019-03-24T04:57:55.351Z,8.88
2019-03-24T05:00:36.569Z,10.20
2019-03-24T05:03:07.293Z,9.20
2019-03-24T05:05:38.247Z,9.45
2019-03-24T05:08:09.393Z,8.78
2019-03-24T05:10:40.249Z,8.85
2019-03-24T05:13:11.125Z,8.65
2019-03-24T05:15:41.879Z,9.43
2019-03-24T05:18:12.532Z,8.23
2019-03-24T05:20:43.370Z,7.90
2019-03-24T05:23:14.141Z,9.38
2019-03-24T05:25:44.896Z,7.97
2019-03-24T05:28:15.543Z,8.43
2019-03-24T05:30:46.301Z,8.35
2019-03-24T05:33:17.052Z,8.53
2019-03-24T05:35:47.805Z,8.15
2019-03-24T05:38:18.663Z,9.13
2019-03-24T05:40:49.521Z,8.30
2019-03-24T05:43:20.274Z,8.73
2019-03-24T05:45:50.923Z,8.18
2019-03-24T05:48:21.789Z,9.13
2019-03-24T05:50:52.520Z,8.50
2019-03-24T05:53:23.171Z,8.48
2019-03-24T05:55:53.923Z,8.55
2019-03-24T05:58:24.673Z,7.58
2019-03-24T06:00:55.538Z,8.00
2019-03-24T06:03:26.303Z,7.37
2019-03-24T06:05:56.938Z,7.65
2019-03-24T06:08:27.691Z,6.92
2019-03-24T06:10:58.564Z,7.03
2019-03-24T06:13:29.198Z,7.25
2019-03-24T06:18:29.785Z,7.67
2019-03-24T06:21:00.552Z,7.60
2019-03-24T06:23:31.412Z,7.65
2019-03-24T06:26:02.254Z,6.95
2019-03-24T06:28:33.022Z,7.72
2019-03-24T06:31:03.673Z,6.87
2019-03-24T06:33:34.211Z,6.62
2019-03-24T06:36:05.087Z,7.17
2019-03-24T06:38:35.839Z,6.97
2019-03-24T06:41:06.590Z,7.58
2019-03-24T06:43:37.444Z,6.90
2019-03-24T06:46:08.297Z,7.00
2019-03-24T06:48:38.831Z,6.83
2019-03-24T06:53:39.418Z,7.17
2019-03-24T06:56:10.071Z,8.15
2019-03-24T07:01:10.658Z,6.90
2019-03-24T07:06:11.056Z,6.40
2019-03-24T07:08:41.588Z,5.92
2019-03-24T07:11:13.863Z,6.35
2019-03-24T07:13:44.647Z,6.10
2019-03-24T07:18:45.235Z,6.03
2019-03-24T07:23:45.708Z,5.90
2019-03-24T07:28:46.310Z,6.75
2019-03-24T07:31:17.060Z,6.25
2019-03-24T07:33:47.713Z,6.37
2019-03-24T07:36:18.571Z,5.67
2019-03-24T07:38:49.101Z,5.42
2019-03-24T07:41:19.973Z,5.40
2019-03-24T07:43:50.216Z,5.60
2019-03-24T07:46:20.749Z,5.55
2019-03-24T07:48:51.195Z,5.70
2019-03-24T07:53:51.706Z,6.07
2019-03-24T07:58:52.167Z,5.53
2019-03-24T08:03:52.874Z,6.62
2019-03-24T08:06:23.711Z,4.95
2019-03-24T08:08:54.383Z,5.10
2019-03-24T08:11:25.162Z,4.60
2019-03-24T08:13:55.784Z,4.35
2019-03-24T08:16:26.749Z,4.65
2019-03-24T08:21:27.497Z,4.80
2019-03-24T08:24:04.216Z,4.55
2019-03-24T08:26:35.161Z,4.65
2019-03-24T08:31:35.092Z,4.40
2019-03-24T08:34:05.426Z,4.45
2019-03-24T08:36:35.654Z,4.83
2019-03-24T08:39:06.398Z,4.87
2019-03-24T08:41:38.719Z,4.70
2019-03-24T08:44:08.860Z,4.25
2019-03-24T08:46:39.180Z,4.08
2019-03-24T08:49:09.394Z,4.55
2019-03-24T08:54:09.891Z,4.07
2019-03-24T08:56:40.547Z,3.67
2019-03-24T08:59:11.200Z,3.67
2019-03-24T09:01:41.730Z,4.37
2019-03-24T09:04:12.277Z,4.85
2019-03-24T09:09:12.663Z,4.20
2019-03-24T09:14:13.164Z,4.05
2019-03-24T09:16:43.816Z,4.00
2019-03-24T09:19:14.466Z,4.35
2019-03-24T09:24:14.851Z,3.87
2019-03-24T09:26:45.500Z,4.10
2019-03-24T09:31:45.764Z,4.60
2019-03-24T09:34:16.434Z,4.35
2019-03-24T09:39:16.918Z,4.03
2019-03-24T09:41:47.572Z,3.83
2019-03-24T09:46:47.937Z,5.17
2019-03-24T09:49:18.708Z,4.37
2019-03-24T09:51:49.253Z,4.95
2019-03-24T09:54:19.806Z,4.30
2019-03-24T09:59:20.290Z,4.08
2019-03-24T10:04:20.660Z,4.78
2019-03-24T10:09:21.140Z,5.78
2019-03-24T10:11:51.894Z,5.92
2019-03-24T10:14:22.566Z,5.22
2019-03-24T10:16:55.611Z,4.83
2019-03-24T10:19:25.178Z,6.12
2019-03-24T10:21:56.054Z,5.70
2019-03-24T10:24:26.701Z,6.20
2019-03-24T10:26:57.048Z,5.85
2019-03-24T10:31:57.413Z,5.22
2019-03-24T10:36:57.919Z,4.53
2019-03-24T10:41:58.937Z,4.97
2019-03-24T10:44:29.260Z,4.92
2019-03-24T10:46:59.909Z,5.35
2019-03-24T10:49:30.770Z,6.62
2019-03-24T10:52:01.520Z,5.53
2019-03-24T10:57:01.985Z,5.67
2019-03-24T11:02:02.594Z,6.67
2019-03-24T11:04:33.344Z,6.15
2019-03-24T11:09:33.835Z,7.30
2019-03-24T11:14:34.417Z,7.08
2019-03-24T11:17:05.152Z,6.62
2019-03-24T11:19:36.186Z,7.12
2019-03-24T11:22:06.782Z,6.30
2019-03-24T11:24:37.534Z,5.10
2019-03-24T11:27:09.517Z,5.95
2019-03-24T11:29:39.844Z,7.30
2019-03-24T11:34:40.280Z,7.60
2019-03-24T11:37:12.532Z,7.92
2019-03-24T11:39:43.183Z,8.25
2019-03-24T11:42:14.045Z,8.05
2019-03-24T11:44:44.999Z,10.98
2019-03-24T11:47:26.224Z,12.78
2019-03-24T11:49:49.681Z,11.25
2019-03-24T11:52:20.318Z,11.93
2019-03-24T11:54:51.109Z,10.95
2019-03-24T11:57:21.839Z,10.23
2019-03-24T11:59:52.693Z,9.95
2019-03-24T12:02:23.447Z,9.75
2019-03-24T12:04:54.814Z,10.55
2019-03-24T12:07:25.266Z,11.25
2019-03-24T12:09:56.013Z,9.23
2019-03-24T12:12:26.647Z,9.10
2019-03-24T12:17:27.256Z,8.95
2019-03-24T12:22:28.132Z,9.73
2019-03-24T12:24:59.003Z,10.23
2019-03-24T12:27:29.865Z,10.80
2019-03-24T12:30:00.614Z,10.72
2019-03-24T12:32:31.265Z,9.43
2019-03-24T12:35:02.125Z,8.55
2019-03-24T12:37:32.875Z,8.10
2019-03-24T12:40:04.538Z,8.83
2019-03-24T12:42:35.099Z,7.25
2019-03-24T12:45:09.127Z,8.40
2019-03-24T12:47:39.783Z,10.43
2019-03-24T12:50:10.648Z,9.38
2019-03-24T12:52:41.271Z,15.85
2019-03-24T12:57:44.103Z,10.82
2019-03-24T13:00:15.798Z,13.72
2019-03-24T13:02:46.451Z,15.32
2019-03-24T13:05:17.306Z,11.33
2019-03-24T13:07:48.061Z,10.75
2019-03-24T13:10:18.813Z,11.28
2019-03-24T13:12:49.566Z,10.93
2019-03-24T13:15:20.425Z,10.70
2019-03-24T13:17:51.192Z,10.58
2019-03-24T13:20:36.498Z,8.13
2019-03-24T13:22:54.118Z,8.28
2019-03-24T13:25:24.956Z,9.35
2019-03-24T13:27:55.733Z,10.30
2019-03-24T13:30:26.379Z,12.07
2019-03-24T13:32:57.233Z,9.90
2019-03-24T13:35:28.090Z,7.10
2019-03-24T13:37:58.826Z,6.67
2019-03-24T13:42:59.430Z,7.90
2019-03-24T13:48:00.074Z,9.63
2019-03-24T13:50:31.826Z,6.08
2019-03-24T13:53:02.650Z,6.65
2019-03-24T13:55:33.508Z,6.05
2019-03-24T13:58:04.466Z,6.20
2019-03-24T14:00:35.221Z,5.67
2019-03-24T14:03:05.861Z,5.80
2019-03-24T14:05:36.609Z,6.00
2019-03-24T14:08:07.360Z,5.55
2019-03-24T14:10:37.926Z,4.95
2019-03-24T14:13:08.478Z,5.40
2019-03-24T14:18:08.946Z,5.62
2019-03-24T14:23:10.759Z,6.22
2019-03-24T14:28:11.367Z,5.90
2019-03-24T14:30:48.968Z,5.85
2019-03-24T14:33:19.210Z,5.83
2019-03-24T14:38:19.550Z,5.75
2019-03-24T14:43:20.182Z,6.83
2019-03-24T14:45:50.835Z,7.35
2019-03-24T14:48:21.575Z,6.87
2019-03-24T14:50:54.794Z,6.75
2019-03-24T14:53:24.425Z,7.53
2019-03-24T14:55:55.180Z,7.72
2019-03-24T14:58:25.830Z,8.95
2019-03-24T15:00:56.689Z,9.23
2019-03-24T15:03:27.441Z,10.50
2019-03-24T15:05:58.194Z,10.60
2019-03-24T15:08:28.849Z,9.45
2019-03-24T15:10:59.587Z,10.15
2019-03-24T15:16:00.189Z,12.98
2019-03-24T15:18:31.044Z,14.58
2019-03-24T15:21:05.930Z,15.68
2019-03-24T15:23:33.863Z,14.85
2019-03-24T15:26:04.735Z,15.72
2019-03-24T15:28:35.493Z,24.12
2019-03-24T15:31:06.147Z,23.30
2019-03-24T15:33:37.011Z,22.40
2019-03-24T15:36:07.738Z,30.40
2019-03-24T15:38:38.492Z,47.65
2019-03-24T15:41:10.778Z,49.45
2019-03-24T15:43:41.551Z,48.85
2019-03-24T15:46:12.404Z,28.05
2019-03-24T15:48:43.472Z,20.75
2019-03-24T15:51:17.204Z,25.12
2019-03-24T15:53:46.455Z,25.23
2019-03-24T15:56:17.983Z,27.75
2019-03-24T15:58:48.832Z,27.30
2019-03-24T16:01:19.692Z,22.98
2019-03-24T16:03:50.529Z,21.93
2019-03-24T16:06:21.404Z,21.50
2019-03-24T16:08:53.798Z,38.75
2019-03-24T16:11:24.752Z,35.20
2019-03-24T16:13:55.370Z,38.88
2019-03-24T16:16:26.668Z,53.02
2019-03-24T16:18:57.404Z,66.02
2019-03-24T16:21:31.105Z,72.67
2019-03-24T16:24:00.753Z,73.02
2019-03-24T16:26:31.408Z,69.35
2019-03-24T16:31:32.111Z,53.90
2019-03-24T16:34:02.744Z,51.65
2019-03-24T16:36:33.617Z,54.58
2019-03-24T16:39:06.982Z,50.88
2019-03-24T16:41:37.572Z,55.63
2019-03-24T16:44:08.438Z,50.90
2019-03-24T16:46:40.622Z,54.42
2019-03-24T16:49:11.581Z,124.00
2019-03-24T16:51:42.224Z,137.12
2019-03-24T16:54:12.990Z,100.97
2019-03-24T16:56:43.639Z,140.77
2019-03-24T16:59:14.503Z,109.07
2019-03-24T17:01:45.128Z,73.40
2019-03-24T17:04:17.532Z,68.78
2019-03-24T17:06:48.279Z,111.57
2019-03-24T17:09:19.150Z,116.35
2019-03-24T17:11:49.782Z,121.13
2019-03-24T17:14:20.245Z,91.80
2019-03-24T17:16:50.898Z,81.78
2019-03-24T17:19:21.736Z,82.25
2019-03-24T17:21:52.493Z,154.27
2019-03-24T17:24:23.244Z,106.65
2019-03-24T17:26:53.911Z,77.32
2019-03-24T17:29:24.753Z,68.33
2019-03-24T17:31:55.506Z,42.00
2019-03-24T17:34:27.815Z,37.30
2019-03-24T17:36:58.154Z,40.52
2019-03-24T17:39:28.910Z,36.73
2019-03-24T17:41:59.764Z,34.78
2019-03-24T17:44:30.623Z,31.37
2019-03-24T17:47:01.375Z,36.53
2019-03-24T17:49:32.007Z,34.43
2019-03-24T17:52:02.887Z,39.38
2019-03-24T17:54:33.617Z,48.33
2019-03-24T17:57:04.277Z,48.70
2019-03-24T18:02:13.955Z,40.23
2019-03-24T18:04:36.958Z,39.00
2019-03-24T18:07:07.815Z,38.85
2019-03-24T18:09:38.770Z,33.85
2019-03-24T18:14:38.726Z,34.63
2019-03-24T18:17:09.603Z,30.27
2019-03-24T18:19:40.354Z,31.42
2019-03-24T18:22:11.969Z,29.52
2019-03-24T18:24:42.886Z,28.70
2019-03-24T18:27:13.622Z,28.70
2019-03-24T18:29:44.499Z,26.52
2019-03-24T18:32:15.251Z,27.52
2019-03-24T18:34:45.904Z,25.60
2019-03-24T18:37:16.655Z,26.93
2019-03-24T18:39:47.394Z,26.00
2019-03-24T18:42:18.042Z,25.17
2019-03-24T18:44:48.797Z,27.25
2019-03-24T18:49:49.402Z,28.62
2019-03-24T18:52:28.705Z,30.02
2019-03-24T18:55:04.765Z,25.62
2019-03-24T18:57:49.407Z,28.83
2019-03-24T19:00:22.799Z,27.58
2019-03-24T19:03:03.732Z,30.45
2019-03-24T19:05:35.277Z,28.00
2019-03-24T19:08:05.776Z,35.17
2019-03-24T19:10:36.662Z,29.52
2019-03-24T19:13:07.412Z,26.45
2019-03-24T19:15:38.158Z,29.70
2019-03-24T19:18:09.015Z,30.85
2019-03-24T19:20:39.870Z,29.42
2019-03-24T19:23:10.628Z,26.95
2019-03-24T19:25:41.278Z,26.73
2019-03-24T19:28:12.134Z,24.92
2019-03-24T19:30:42.992Z,26.75
2019-03-24T19:33:13.749Z,25.40
2019-03-24T19:35:44.397Z,25.23
2019-03-24T19:38:15.148Z,24.07
2019-03-24T19:40:46.006Z,24.23
2019-03-24T19:43:16.760Z,23.55
2019-03-24T19:45:47.411Z,23.73
2019-03-24T19:48:18.165Z,24.95
2019-03-24T19:50:50.028Z,24.82
2019-03-24T19:53:20.779Z,26.90
2019-03-24T19:55:51.552Z,25.97
2019-03-24T19:58:22.207Z,25.85
2019-03-24T20:00:53.059Z,25.00
2019-03-24T20:03:25.351Z,24.55
2019-03-24T20:05:55.996Z,24.05
2019-03-24T20:08:26.752Z,28.15
2019-03-24T20:10:57.287Z,31.68
2019-03-24T20:13:28.158Z,22.55
2019-03-24T20:15:58.910Z,23.35
2019-03-24T20:18:29.664Z,22.10
2019-03-24T20:21:00.194Z,23.65
2019-03-24T20:23:31.057Z,19.12
2019-03-24T20:26:01.823Z,18.40
2019-03-24T20:28:32.561Z,18.23
2019-03-24T20:31:03.228Z,17.48
2019-03-24T20:33:34.070Z,17.23
2019-03-24T20:36:04.840Z,16.37
2019-03-24T20:38:35.594Z,20.30
2019-03-24T20:41:06.329Z,18.32
2019-03-24T20:43:37.201Z,16.20
2019-03-24T20:46:07.957Z,17.35
2019-03-24T20:48:38.608Z,15.93
2019-03-24T20:51:09.463Z,12.40
2019-03-24T20:53:40.217Z,14.55
2019-03-24T20:56:10.972Z,13.65
2019-03-24T20:58:41.507Z,14.68
2019-03-24T21:01:13.811Z,14.55
2019-03-24T21:03:44.666Z,12.65
2019-03-24T21:06:15.315Z,16.97
2019-03-24T21:08:45.968Z,17.50
2019-03-24T21:11:16.830Z,16.23
2019-03-24T21:13:47.581Z,14.05
2019-03-24T21:16:19.256Z,14.30
2019-03-24T21:18:51.061Z,14.38
2019-03-24T21:21:21.781Z,12.35
2019-03-24T21:23:52.435Z,12.68
2019-03-24T21:26:23.089Z,12.37
2019-03-24T21:28:53.842Z,13.13
2019-03-24T21:31:24.493Z,16.35
2019-03-24T21:33:55.226Z,15.83
2019-03-24T21:36:25.987Z,15.25
2019-03-24T21:38:56.754Z,13.98
2019-03-24T21:41:27.389Z,13.78
2019-03-24T21:43:58.142Z,16.42
2019-03-24T21:46:29.121Z,14.70
2019-03-24T21:48:59.769Z,19.05
2019-03-24T21:51:30.607Z,17.25
2019-03-24T21:54:01.481Z,14.93
2019-03-24T21:56:32.233Z,15.23
2019-03-24T21:59:02.886Z,15.45
2019-03-24T22:01:33.623Z,15.83
2019-03-24T22:04:04.394Z,16.70
2019-03-24T22:06:35.133Z,15.15
2019-03-24T22:09:07.475Z,14.40
2019-03-24T22:11:37.986Z,15.13
2019-03-24T22:14:08.841Z,15.90
2019-03-24T22:16:39.593Z,17.32
2019-03-24T22:19:10.251Z,17.30
2019-03-24T22:21:41.100Z,16.52
2019-03-24T22:24:11.960Z,16.75
2019-03-24T22:26:42.741Z,15.60
2019-03-24T22:29:13.248Z,16.90
2019-03-24T22:31:44.099Z,18.37
2019-03-24T22:34:14.749Z,18.27
2019-03-24T22:36:45.506Z,21.23
2019-03-24T22:39:16.048Z,23.25
2019-03-24T22:41:46.915Z,25.25
2019-03-24T22:44:17.783Z,30.75
2019-03-24T22:46:48.725Z,26.20
2019-03-24T22:51:49.006Z,27.90
2019-03-24T22:54:19.778Z,29.98
2019-03-24T22:56:50.470Z,28.17
2019-03-24T22:59:21.391Z,28.07
2019-03-24T23:01:52.145Z,25.97
2019-03-24T23:04:22.796Z,25.68
2019-03-24T23:06:53.650Z,26.00
2019-03-24T23:09:24.561Z,29.60
2019-03-24T23:11:55.365Z,28.12
2019-03-24T23:14:26.214Z,28.27
2019-03-24T23:16:57.099Z,31.23
2019-03-24T23:19:27.808Z,29.87
2019-03-24T23:24:36.885Z,31.25
2019-03-24T23:27:07.539Z,26.65
2019-03-24T23:29:38.195Z,29.85
2019-03-24T23:34:38.672Z,39.08
2019-03-24T23:37:09.444Z,40.38
2019-03-24T23:39:39.975Z,49.08
2019-03-24T23:42:10.851Z,38.10
2019-03-24T23:44:41.604Z,36.35
2019-03-24T23:47:12.458Z,34.85
2019-03-24T23:49:43.194Z,37.67
2019-03-24T23:52:14.068Z,37.33
2019-03-24T23:54:44.824Z,38.98
2019-03-24T23:57:15.458Z,36.68
2019-03-24T23:59:46.329Z,35.13
